< < Back
Terminal Aerodrome Forecast


Current Version              Previous Versions:   1  2  3  4  5  6  7  8  9  

Terminal Aerodrome Forecast

781
FTUS44 KHUN 031120
TAFHSV
TAF
KHSV 031120Z 0312/0412 35003KT P6SM SKC
     FM031700 35006KT P6SM FEW050
     FM040000 VRB03KT P6SM SKC=



Latest METAR

965
SAUS80 KWBC 031900 RRA
MTRHSV
METAR KHSV 031853Z 03006KT 10SM SCT065 SCT250 36/17 A2994 RMK AO2 SLP131
T03610167


USA.gov is the U.S. government's official web portal to all federal, state and local government web resources and services.